createdAt,value
2018-09-15T09:46:07.430Z,1021.54
2018-09-15T09:47:24.027Z,1021.46
2018-09-15T09:48:24.004Z,1021.45
2018-09-15T09:49:24.012Z,1021.51
2018-09-15T09:50:24.130Z,1021.47
2018-09-15T09:51:23.970Z,1021.45
2018-09-15T09:52:24.000Z,1021.54
2018-09-15T09:53:23.944Z,1021.51
2018-09-15T09:54:23.938Z,1021.47
2018-09-15T09:55:23.942Z,1021.49
2018-09-15T09:56:23.927Z,1021.45
2018-09-15T09:57:23.918Z,1021.39
2018-09-15T09:58:23.898Z,1021.42
2018-09-15T09:59:23.882Z,1021.39
2018-09-15T10:00:23.883Z,1021.43
2018-09-15T10:01:23.975Z,1021.38
2018-09-15T10:02:23.995Z,1021.37
2018-09-15T10:03:23.838Z,1021.43
2018-09-15T10:04:23.854Z,1021.42
2018-09-15T10:05:23.816Z,1021.39
2018-09-15T10:06:30.779Z,1021.37
2018-09-15T10:07:23.796Z,1021.42
2018-09-15T10:08:23.811Z,1021.42
2018-09-15T10:09:23.817Z,1021.43
2018-09-15T10:10:23.756Z,1021.40
2018-09-15T10:11:23.751Z,1021.37
2018-09-15T10:12:23.804Z,1021.33
2018-09-15T10:13:23.730Z,1021.33
2018-09-15T10:14:23.715Z,1021.37
2018-09-15T10:15:23.712Z,1021.36
2018-09-15T10:16:23.708Z,1021.37
2018-09-15T10:17:23.681Z,1021.38
2018-09-15T10:18:23.721Z,1021.41
2018-09-15T10:19:23.659Z,1021.42
2018-09-15T10:20:23.652Z,1021.45
2018-09-15T10:21:23.645Z,1021.44
2018-09-15T10:22:23.659Z,1021.46
2018-09-15T10:23:23.718Z,1021.49
2018-09-15T10:24:23.614Z,1021.46
2018-09-15T10:25:23.596Z,1021.42
2018-09-15T10:26:23.585Z,1021.41
2018-09-15T10:27:23.600Z,1021.45
2018-09-15T10:28:23.592Z,1021.45
2018-09-15T10:29:23.559Z,1021.44
2018-09-15T10:30:23.545Z,1021.45
2018-09-15T10:31:23.548Z,1021.38
2018-09-15T10:32:23.716Z,1021.39
2018-09-15T10:33:23.870Z,1021.38
2018-09-15T10:35:25.229Z,1021.44
2018-09-15T10:36:23.584Z,1021.42
2018-09-15T10:37:44.648Z,1021.48
2018-09-15T10:39:45.631Z,1021.42
2018-09-15T10:40:44.624Z,1021.47
2018-09-15T10:41:23.528Z,1021.46
2018-09-15T10:44:30.657Z,1021.50
2018-09-15T10:44:34.043Z,1021.49
2018-09-15T10:46:42.172Z,1021.54
2018-09-15T10:48:43.292Z,1021.63
2018-09-15T10:50:04.077Z,1021.62
2018-09-15T10:50:42.972Z,1021.61
2018-09-15T10:51:41.958Z,1021.57
2018-09-15T10:53:03.138Z,1021.58
2018-09-15T10:56:04.578Z,1021.73
2018-09-15T11:00:11.980Z,1021.77
2018-09-15T11:01:11.920Z,1021.80
2018-09-15T11:02:33.038Z,1021.77
2018-09-15T11:03:11.824Z,1021.74
2018-09-15T11:05:36.694Z,1021.77
2018-09-15T11:06:34.575Z,1021.74
2018-09-15T11:07:33.260Z,1021.70
2018-09-15T11:10:34.236Z,1021.72
2018-09-15T11:11:33.098Z,1021.77
2018-09-15T11:12:33.088Z,1021.71
2018-09-15T11:13:33.108Z,1021.73
2018-09-15T11:14:33.372Z,1021.75
2018-09-15T11:15:33.182Z,1021.78
2018-09-15T11:18:03.569Z,1021.77
2018-09-15T11:19:03.889Z,1021.82
2018-09-15T11:19:42.251Z,1021.81
2018-09-15T11:20:42.225Z,1021.79
2018-09-15T11:21:42.700Z,1021.76
2018-09-15T11:22:42.233Z,1021.81
2018-09-15T11:23:42.174Z,1021.76
2018-09-15T11:24:42.181Z,1021.84
2018-09-15T11:25:42.216Z,1021.81
2018-09-15T11:26:42.165Z,1021.79
2018-09-15T11:27:42.146Z,1021.83
2018-09-15T11:28:42.166Z,1021.79
2018-09-15T11:29:42.117Z,1021.81
2018-09-15T11:30:42.240Z,1021.82
2018-09-15T11:31:42.089Z,1021.84
2018-09-15T11:32:42.076Z,1021.85
2018-09-15T11:33:42.079Z,1021.85
2018-09-15T11:34:53.342Z,1021.86
2018-09-15T11:35:43.085Z,1021.88
2018-09-15T11:36:42.078Z,1021.83
2018-09-15T11:37:42.044Z,1021.83
2018-09-15T11:38:42.022Z,1021.84
2018-09-15T11:39:42.019Z,1021.89
2018-09-15T11:40:41.984Z,1021.86
2018-09-15T11:41:42.003Z,1021.77
2018-09-15T11:42:41.975Z,1021.79
2018-09-15T11:44:43.127Z,1021.79
2018-09-15T11:45:41.951Z,1021.82
2018-09-15T11:46:42.042Z,1021.84
2018-09-15T11:47:41.911Z,1021.80
2018-09-15T11:48:41.910Z,1021.83
2018-09-15T11:49:41.916Z,1021.83
2018-09-15T11:50:41.923Z,1021.81
2018-09-15T11:51:41.866Z,1021.81
2018-09-15T11:52:41.911Z,1021.77
2018-09-15T11:54:43.066Z,1021.78
2018-09-15T11:55:41.878Z,1021.82
2018-09-15T11:56:41.830Z,1021.76
2018-09-15T11:57:41.832Z,1021.83
2018-09-15T11:58:41.810Z,1021.80
2018-09-15T11:59:41.783Z,1021.76
2018-09-15T12:00:41.779Z,1021.80
2018-09-15T12:01:41.808Z,1021.80
2018-09-15T12:03:42.921Z,1021.81
2018-09-15T12:04:41.734Z,1021.78
2018-09-15T12:05:41.727Z,1021.75
2018-09-15T12:06:41.730Z,1021.78
2018-09-15T12:07:41.784Z,1021.76
2018-09-15T12:08:41.670Z,1021.84
2018-09-15T12:09:41.674Z,1021.77
2018-09-15T12:10:41.657Z,1021.75
2018-09-15T12:13:42.786Z,1021.81
2018-09-15T12:14:41.605Z,1021.73
2018-09-15T12:15:41.612Z,1021.77
2018-09-15T12:17:42.768Z,1021.71
2018-09-15T12:18:41.619Z,1021.69
2018-09-15T12:19:41.567Z,1021.67
2018-09-15T12:22:42.709Z,1021.64
2018-09-15T12:23:41.511Z,1021.68
2018-09-15T12:24:41.536Z,1021.66
2018-09-15T12:25:41.503Z,1021.76
2018-09-15T12:27:42.760Z,1021.75
2018-09-15T12:28:41.490Z,1021.75
2018-09-15T12:29:41.461Z,1021.72
2018-09-15T12:30:41.425Z,1021.79
2018-09-15T12:31:41.416Z,1021.78
2018-09-15T12:32:41.413Z,1021.81
2018-09-15T12:33:41.420Z,1021.77
2018-09-15T12:34:41.405Z,1021.82
2018-09-15T12:35:41.397Z,1021.83
2018-09-15T12:36:41.369Z,1021.84
2018-09-15T12:37:41.347Z,1021.83
2018-09-15T12:38:41.335Z,1021.85
2018-09-15T12:39:41.367Z,1021.82
2018-09-15T12:40:41.327Z,1021.81
2018-09-15T12:41:41.317Z,1021.80
2018-09-15T12:42:41.299Z,1021.83
2018-09-15T12:43:41.284Z,1021.80
2018-09-15T12:44:41.297Z,1021.72
2018-09-15T12:45:41.282Z,1021.70
2018-09-15T12:46:41.252Z,1021.69
2018-09-15T12:47:41.245Z,1021.74
2018-09-15T12:48:41.247Z,1021.71
2018-09-15T12:49:41.232Z,1021.70
2018-09-15T12:50:41.215Z,1021.70
2018-09-15T12:51:41.196Z,1021.70
2018-09-15T12:53:42.961Z,1021.69
2018-09-15T12:54:41.196Z,1021.77
2018-09-15T12:55:41.156Z,1021.73
2018-09-15T12:56:41.143Z,1021.68
2018-09-15T12:57:41.189Z,1021.67
2018-09-15T12:58:41.148Z,1021.64
2018-09-15T12:59:41.140Z,1021.61
2018-09-15T13:00:41.117Z,1021.56
2018-09-15T13:01:41.078Z,1021.56
2018-09-15T13:02:41.513Z,1021.56
2018-09-15T13:03:41.055Z,1021.63
2018-09-15T13:04:41.094Z,1021.64
2018-09-15T13:05:41.044Z,1021.60
2018-09-15T13:06:41.026Z,1021.63
2018-09-15T13:08:06.336Z,1021.63
2018-09-15T13:10:17.562Z,1021.64
2018-09-15T13:12:01.673Z,1021.67
2018-09-15T13:13:01.602Z,1021.67
2018-09-15T13:14:01.584Z,1021.64
2018-09-15T13:15:01.596Z,1021.58
2018-09-15T13:16:01.564Z,1021.64
2018-09-15T13:17:01.582Z,1021.61
2018-09-15T13:18:01.544Z,1021.59
2018-09-15T13:19:01.542Z,1021.65
2018-09-15T13:20:01.525Z,1021.64
2018-09-15T13:21:01.513Z,1021.61
2018-09-15T13:22:01.488Z,1021.63
2018-09-15T13:23:01.472Z,1021.65
2018-09-15T13:24:01.475Z,1021.70
2018-09-15T13:25:01.450Z,1021.76
2018-09-15T13:26:01.483Z,1021.77
2018-09-15T13:27:01.431Z,1021.78
2018-09-15T13:28:01.419Z,1021.77
2018-09-15T13:29:01.410Z,1021.76
2018-09-15T13:30:01.479Z,1021.77
2018-09-15T13:31:01.408Z,1021.82
2018-09-15T13:32:01.373Z,1021.82
2018-09-15T13:33:01.361Z,1021.85
2018-09-15T13:34:01.369Z,1021.86
2018-09-15T13:35:01.352Z,1021.86
2018-09-15T13:36:01.426Z,1021.84
2018-09-15T13:37:01.317Z,1021.90
2018-09-15T13:38:01.309Z,1021.86
2018-09-15T13:39:01.296Z,1021.93
2018-09-15T13:40:01.315Z,1021.93
2018-09-15T13:41:01.302Z,1021.94
2018-09-15T13:42:01.445Z,1022.00
2018-09-15T13:43:01.249Z,1022.00
2018-09-15T13:44:01.246Z,1021.99
2018-09-15T13:45:01.233Z,1021.93
2018-09-15T13:46:01.221Z,1021.94
2018-09-15T13:47:01.229Z,1021.96
2018-09-15T13:48:01.231Z,1021.93
2018-09-15T13:49:01.195Z,1021.93
2018-09-15T13:50:01.185Z,1021.93
2018-09-15T13:51:01.179Z,1021.88
2018-09-15T13:52:01.179Z,1021.88
2018-09-15T13:53:01.151Z,1021.88
2018-09-15T13:54:01.133Z,1021.75
2018-09-15T13:55:01.124Z,1021.74
2018-09-15T13:56:01.115Z,1021.78
2018-09-15T13:57:01.106Z,1021.78
2018-09-15T13:58:01.083Z,1021.73
2018-09-15T13:59:01.150Z,1021.80
2018-09-15T14:00:01.065Z,1021.78
2018-09-15T14:01:01.046Z,1021.66
2018-09-15T14:02:01.055Z,1021.63
2018-09-15T14:03:01.026Z,1021.65
2018-09-15T14:04:01.036Z,1021.67
2018-09-15T14:05:01.142Z,1021.65
2018-09-15T14:06:00.997Z,1021.66
2018-09-15T14:07:01.005Z,1021.66
2018-09-15T14:08:00.993Z,1021.70
2018-09-15T14:09:01.003Z,1021.66
2018-09-15T14:10:07.044Z,1021.68
2018-09-15T14:11:02.038Z,1021.69
2018-09-15T14:12:00.948Z,1021.68
2018-09-15T14:13:00.931Z,1021.75
2018-09-15T14:15:02.088Z,1021.70
2018-09-15T14:16:00.898Z,1021.67
2018-09-15T14:17:00.898Z,1021.68
2018-09-15T14:18:00.882Z,1021.67
2018-09-15T14:19:00.846Z,1021.72
2018-09-15T14:20:00.837Z,1021.70
2018-09-15T14:21:00.822Z,1021.74
2018-09-15T14:22:00.867Z,1021.70
2018-09-15T14:23:00.832Z,1021.68
2018-09-15T14:24:00.793Z,1021.69
2018-09-15T14:25:00.787Z,1021.68
2018-09-15T14:26:00.801Z,1021.66
2018-09-15T14:27:00.755Z,1021.71
2018-09-15T14:28:00.793Z,1021.72
2018-09-15T14:29:00.737Z,1021.73
2018-09-15T14:30:00.731Z,1021.73
2018-09-15T14:31:00.718Z,1021.72
2018-09-15T14:32:00.701Z,1021.71
2018-09-15T14:33:00.691Z,1021.69
2018-09-15T14:34:00.706Z,1021.78
2018-09-15T14:35:00.690Z,1021.81
2018-09-15T14:36:00.672Z,1021.81
2018-09-15T14:37:00.648Z,1021.79
2018-09-15T14:38:00.670Z,1021.78
2018-09-15T14:39:00.651Z,1021.77
2018-09-15T14:40:00.612Z,1021.73
2018-09-15T14:41:00.609Z,1021.71
2018-09-15T14:42:00.590Z,1021.74
2018-09-15T14:43:00.575Z,1021.73
2018-09-15T14:44:00.595Z,1021.70
2018-09-15T14:45:00.557Z,1021.72
2018-09-15T14:46:00.544Z,1021.71
2018-09-15T14:47:00.547Z,1021.68
2018-09-15T14:48:00.530Z,1021.71
2018-09-15T14:49:00.543Z,1021.67
2018-09-15T14:50:00.498Z,1021.63
2018-09-15T14:51:00.490Z,1021.71
2018-09-15T14:52:00.482Z,1021.67
2018-09-15T14:53:00.476Z,1021.64
2018-09-15T14:54:00.485Z,1021.64
2018-09-15T14:55:00.467Z,1021.66
2018-09-15T14:56:00.476Z,1021.67
2018-09-15T14:57:00.418Z,1021.69
2018-09-15T14:58:00.407Z,1021.72
2018-09-15T14:59:00.444Z,1021.68
2018-09-15T15:00:00.438Z,1021.72
2018-09-15T15:01:00.379Z,1021.73
2018-09-15T15:02:00.386Z,1021.75
2018-09-15T15:03:00.357Z,1021.70
2018-09-15T15:04:00.347Z,1021.74
2018-09-15T15:09:51.909Z,1021.84
2018-09-15T15:10:51.875Z,1021.83
2018-09-15T15:11:51.858Z,1021.87
2018-09-15T15:12:51.844Z,1021.86
2018-09-15T15:13:51.839Z,1021.88
2018-09-15T15:14:51.858Z,1021.90
2018-09-15T15:15:51.848Z,1021.91
2018-09-15T15:16:51.813Z,1021.89
2018-09-15T15:17:51.793Z,1021.90
2018-09-15T15:18:51.799Z,1021.93
2018-09-15T15:19:51.762Z,1021.93
2018-09-15T15:20:51.781Z,1021.88
2018-09-15T15:21:51.756Z,1021.92
2018-09-15T15:22:51.745Z,1021.90
2018-09-15T15:23:51.724Z,1021.83
2018-09-15T15:24:51.724Z,1021.82
2018-09-15T15:25:51.824Z,1021.79
2018-09-15T15:26:51.688Z,1021.75
2018-09-15T15:27:51.682Z,1021.69
2018-09-15T15:28:51.661Z,1021.73
2018-09-15T15:29:51.671Z,1021.68
2018-09-15T15:30:51.669Z,1021.68
2018-09-15T15:32:52.776Z,1021.72
2018-09-15T15:33:51.611Z,1021.73
2018-09-15T15:34:51.598Z,1021.73
2018-09-15T15:35:51.628Z,1021.78
2018-09-15T15:36:51.582Z,1021.79
2018-09-15T15:37:51.564Z,1021.77
2018-09-15T15:38:51.556Z,1021.77
2018-09-15T15:39:51.547Z,1021.83
2018-09-15T15:40:51.550Z,1021.82
2018-09-15T15:41:51.543Z,1021.79
2018-09-15T15:42:51.509Z,1021.81
2018-09-15T15:43:51.581Z,1021.77
2018-09-15T15:44:51.491Z,1021.82
2018-09-15T15:45:51.493Z,1021.85
2018-09-15T15:46:51.461Z,1021.83
2018-09-15T15:47:51.452Z,1021.84
2018-09-15T15:48:51.447Z,1021.83
2018-09-15T15:49:51.441Z,1021.86
2018-09-15T15:50:51.456Z,1021.85
2018-09-15T15:51:51.421Z,1021.84
2018-09-15T15:52:51.395Z,1021.83
2018-09-15T15:53:51.386Z,1021.88
2018-09-15T15:54:51.386Z,1021.88
2018-09-15T15:55:51.364Z,1021.88
2018-09-15T15:56:51.422Z,1021.81
2018-09-15T15:57:51.349Z,1021.82
2018-09-15T15:58:51.504Z,1021.81
2018-09-15T15:59:51.340Z,1021.82
2018-09-15T16:01:52.454Z,1021.86
2018-09-15T16:02:51.284Z,1021.85
2018-09-15T16:03:51.274Z,1021.88
2018-09-15T16:04:51.314Z,1021.89
2018-09-15T16:05:51.253Z,1021.91
2018-09-15T16:06:51.289Z,1021.89
2018-09-15T16:07:51.312Z,1021.90
2018-09-15T16:08:51.260Z,1021.88
2018-09-15T16:09:51.214Z,1021.86
2018-09-15T16:10:51.202Z,1021.82
2018-09-15T16:11:51.199Z,1021.83
2018-09-15T16:12:51.217Z,1021.86
2018-09-15T16:13:51.217Z,1021.87
2018-09-15T16:14:51.173Z,1021.87
2018-09-15T16:15:51.144Z,1021.83
2018-09-15T16:16:51.225Z,1021.83
2018-09-15T16:17:51.114Z,1021.81
2018-09-15T16:18:51.117Z,1021.81
2018-09-15T16:19:51.124Z,1021.80
2018-09-15T16:20:51.104Z,1021.82
2018-09-15T16:21:51.077Z,1021.82
2018-09-15T16:22:51.075Z,1021.86
2018-09-15T16:23:51.064Z,1021.84
2018-09-15T16:24:51.134Z,1021.86
2018-09-15T16:26:52.957Z,1021.86
2018-09-15T16:27:51.058Z,1021.84
2018-09-15T16:28:50.996Z,1021.78
2018-09-15T16:29:51.003Z,1021.80
2018-09-15T16:30:50.981Z,1021.80
2018-09-15T16:31:50.999Z,1021.78
2018-09-15T16:32:50.970Z,1021.78
2018-09-15T16:33:50.941Z,1021.75
2018-09-15T16:34:50.924Z,1021.72
2018-09-15T16:35:50.907Z,1021.78
2018-09-15T16:36:50.908Z,1021.77
2018-09-15T16:37:50.923Z,1021.78
2018-09-15T16:38:50.882Z,1021.74
2018-09-15T16:39:50.878Z,1021.76
2018-09-15T16:40:50.853Z,1021.75
2018-09-15T16:41:50.841Z,1021.76
2018-09-15T16:42:50.862Z,1021.77
2018-09-15T16:43:50.845Z,1021.74
2018-09-15T16:44:50.822Z,1021.79
2018-09-15T16:45:50.808Z,1021.81
2018-09-15T16:46:50.788Z,1021.81
2018-09-15T16:47:50.789Z,1021.79
2018-09-15T16:48:50.793Z,1021.83
2018-09-15T16:49:50.752Z,1021.81
2018-09-15T16:50:50.745Z,1021.76
2018-09-15T16:51:50.751Z,1021.77
2018-09-15T16:52:50.724Z,1021.77
2018-09-15T16:53:50.721Z,1021.73
2018-09-15T16:54:50.699Z,1021.73
2018-09-15T16:55:50.684Z,1021.75
2018-09-15T16:56:50.738Z,1021.74
2018-09-15T16:57:50.662Z,1021.81
2018-09-15T16:58:50.669Z,1021.78
2018-09-15T16:59:50.635Z,1021.83
2018-09-15T17:01:51.767Z,1021.76
2018-09-15T17:02:50.614Z,1021.81
2018-09-15T17:03:50.628Z,1021.81
2018-09-15T17:04:50.602Z,1021.85
2018-09-15T17:05:50.569Z,1021.88
2018-09-15T17:06:50.556Z,1021.92
2018-09-15T17:07:50.597Z,1021.85
2018-09-15T17:08:50.552Z,1021.92
2018-09-15T17:09:50.539Z,1021.92
2018-09-15T17:10:50.520Z,1021.90
2018-09-15T17:11:50.510Z,1021.90
2018-09-15T17:12:50.506Z,1021.92
2018-09-15T17:13:50.478Z,1021.87
2018-09-15T17:14:50.502Z,1021.87
2018-09-15T17:15:50.470Z,1021.81
2018-09-15T17:16:50.533Z,1021.85
2018-09-15T17:17:50.449Z,1021.81
2018-09-15T17:19:50.523Z,1021.81
2018-09-15T17:20:50.411Z,1021.82
2018-09-15T17:21:50.407Z,1021.79
2018-09-15T17:22:50.380Z,1021.80
2018-09-15T17:23:50.373Z,1021.82
2018-09-15T17:24:50.383Z,1021.80
2018-09-15T17:25:50.442Z,1021.83
2018-09-15T17:26:50.346Z,1021.82
2018-09-15T17:27:50.339Z,1021.87
2018-09-15T17:28:50.313Z,1021.85
2018-09-15T17:29:50.359Z,1021.92
2018-09-15T17:30:50.333Z,1021.93
2018-09-15T17:31:50.278Z,1021.96
2018-09-15T17:33:51.314Z,1021.92
2018-09-15T17:34:50.261Z,1021.97
2018-09-15T17:35:50.242Z,1021.98
2018-09-15T17:36:50.275Z,1021.97
2018-09-15T17:37:50.208Z,1022.00
2018-09-15T17:38:50.204Z,1021.97
2018-09-15T17:39:50.352Z,1022.03
2018-09-15T17:40:50.176Z,1022.01
2018-09-15T17:41:50.167Z,1022.08
2018-09-15T17:42:50.163Z,1022.06
2018-09-15T17:43:50.160Z,1022.07
2018-09-15T17:44:50.141Z,1022.10
2018-09-15T17:45:50.163Z,1022.12
2018-09-15T17:46:50.113Z,1022.08
2018-09-15T17:47:50.104Z,1022.17
2018-09-15T17:49:51.272Z,1022.14
2018-09-15T17:50:50.099Z,1022.13
2018-09-15T17:51:50.056Z,1022.16
2018-09-15T17:52:50.066Z,1022.19
2018-09-15T17:54:35.082Z,1022.16
2018-09-15T17:54:51.131Z,1022.20
2018-09-15T17:55:50.025Z,1022.17
2018-09-15T17:56:50.006Z,1022.16
2018-09-15T17:57:49.989Z,1022.18
2018-09-15T17:59:51.111Z,1022.22
2018-09-15T18:00:50.010Z,1022.21
2018-09-15T18:01:49.942Z,1022.20
2018-09-15T18:02:49.940Z,1022.20
2018-09-15T18:03:49.939Z,1022.21
2018-09-15T18:04:49.915Z,1022.20
2018-09-15T18:05:49.931Z,1022.21
2018-09-15T18:06:49.925Z,1022.20
2018-09-15T18:07:49.898Z,1022.19
2018-09-15T18:08:49.866Z,1022.17
2018-09-15T18:09:49.874Z,1022.18
2018-09-15T18:10:49.891Z,1022.21
2018-09-15T18:12:10.841Z,1022.25
2018-09-15T18:12:49.841Z,1022.23
2018-09-15T18:13:49.817Z,1022.21
2018-09-15T18:14:49.823Z,1022.27
2018-09-15T18:15:49.816Z,1022.24
2018-09-15T18:16:49.999Z,1022.24
2018-09-15T18:17:49.793Z,1022.28
2018-09-15T18:18:49.764Z,1022.29
2018-09-15T18:19:49.746Z,1022.26
2018-09-15T18:20:49.753Z,1022.31
2018-09-15T18:21:49.802Z,1022.32
2018-09-15T18:22:49.719Z,1022.32
2018-09-15T18:23:49.705Z,1022.30
2018-09-15T18:24:49.704Z,1022.30
2018-09-15T18:25:49.688Z,1022.35
2018-09-15T18:26:49.686Z,1022.29
2018-09-15T18:27:49.662Z,1022.32
2018-09-15T18:28:49.643Z,1022.32
2018-09-15T18:29:49.769Z,1022.31
2018-09-15T18:30:49.690Z,1022.33
2018-09-15T18:31:49.777Z,1022.30
2018-09-15T18:32:49.687Z,1022.32
2018-09-15T18:33:49.847Z,1022.33
2018-09-15T18:34:49.585Z,1022.37
2018-09-15T18:35:49.640Z,1022.36
2018-09-15T18:36:49.837Z,1022.36
2018-09-15T18:37:49.551Z,1022.35
2018-09-15T18:38:49.528Z,1022.35
2018-09-15T18:39:49.515Z,1022.39
2018-09-15T18:40:49.527Z,1022.38
2018-09-15T18:41:49.527Z,1022.41
2018-09-15T18:42:49.505Z,1022.40
2018-09-15T18:43:49.497Z,1022.39
2018-09-15T18:44:49.467Z,1022.43
2018-09-15T18:45:49.448Z,1022.41
2018-09-15T18:46:49.464Z,1022.37
2018-09-15T18:47:49.426Z,1022.40
2018-09-15T18:48:49.463Z,1022.43
2018-09-15T18:49:49.402Z,1022.42
2018-09-15T18:50:49.532Z,1022.41
2018-09-15T18:51:49.419Z,1022.43
2018-09-15T18:52:49.399Z,1022.40
2018-09-15T18:53:49.360Z,1022.39
2018-09-15T18:54:49.344Z,1022.40
2018-09-15T18:55:49.410Z,1022.40
2018-09-15T18:56:49.329Z,1022.45
2018-09-15T18:57:49.544Z,1022.50
2018-09-15T18:58:49.319Z,1022.44
2018-09-15T18:59:49.290Z,1022.46
2018-09-15T19:00:49.282Z,1022.49
2018-09-15T19:01:49.286Z,1022.53
2018-09-15T19:02:49.268Z,1022.51
2018-09-15T19:03:49.248Z,1022.48
2018-09-15T19:04:49.245Z,1022.56
2018-09-15T19:05:49.257Z,1022.57
2018-09-15T19:06:49.211Z,1022.58
2018-09-15T19:07:49.265Z,1022.60
2018-09-15T19:08:49.178Z,1022.58
2018-09-15T19:09:49.169Z,1022.58
2018-09-15T19:10:49.164Z,1022.58
2018-09-15T19:11:49.143Z,1022.60
2018-09-15T19:12:49.157Z,1022.57
2018-09-15T19:13:49.163Z,1022.57
2018-09-15T19:14:49.160Z,1022.62
2018-09-15T19:15:49.112Z,1022.64
2018-09-15T19:16:49.097Z,1022.62
2018-09-15T19:17:49.091Z,1022.66
2018-09-15T19:18:49.088Z,1022.63
2018-09-15T19:19:49.051Z,1022.60
2018-09-15T19:20:49.095Z,1022.57
2018-09-15T19:21:49.061Z,1022.62
2018-09-15T19:22:49.019Z,1022.53
2018-09-15T19:23:49.025Z,1022.61
2018-09-15T19:24:48.997Z,1022.56
2018-09-15T19:25:48.989Z,1022.60
2018-09-15T19:26:49.138Z,1022.64
2018-09-15T19:27:48.960Z,1022.66
2018-09-15T19:28:48.985Z,1022.67
2018-09-15T19:29:48.950Z,1022.69
2018-09-15T19:30:48.927Z,1022.65
2018-09-15T19:31:48.916Z,1022.69
2018-09-15T19:32:49.007Z,1022.74
2018-09-15T19:33:48.916Z,1022.71
2018-09-15T19:34:48.891Z,1022.71
2018-09-15T19:35:48.871Z,1022.73
2018-09-15T19:36:48.867Z,1022.71
2018-09-15T19:37:48.856Z,1022.73
2018-09-15T19:38:48.866Z,1022.72
2018-09-15T19:39:48.859Z,1022.71
2018-09-15T19:40:48.855Z,1022.75
2018-09-15T19:41:48.917Z,1022.76
2018-09-15T19:42:48.853Z,1022.80
2018-09-15T19:43:48.824Z,1022.77
2018-09-15T19:44:48.786Z,1022.78
2018-09-15T19:45:48.768Z,1022.76
2018-09-15T19:46:48.769Z,1022.77
2018-09-15T19:47:48.768Z,1022.83
2018-09-15T19:48:48.748Z,1022.86
2018-09-15T19:49:48.767Z,1022.87
2018-09-15T19:50:48.701Z,1022.84
2018-09-15T19:51:48.681Z,1022.86
2018-09-15T19:52:48.677Z,1022.83
2018-09-15T19:53:48.659Z,1022.85
2018-09-15T19:54:48.769Z,1022.87
2018-09-15T19:55:48.719Z,1022.86
2018-09-15T19:56:48.633Z,1022.83
2018-09-15T19:57:48.624Z,1022.83
2018-09-15T19:59:49.757Z,1022.82
2018-09-15T20:00:48.632Z,1022.84
2018-09-15T20:01:48.587Z,1022.88
2018-09-15T20:02:48.559Z,1022.86
2018-09-15T20:03:48.584Z,1022.88
2018-09-15T20:04:48.624Z,1022.88
2018-09-15T20:05:48.530Z,1022.84
2018-09-15T20:06:48.512Z,1022.84
2018-09-15T20:07:48.504Z,1022.84
2018-09-15T20:08:48.489Z,1022.81
2018-09-15T20:09:48.500Z,1022.90
2018-09-15T20:10:48.497Z,1022.87
2018-09-15T20:11:48.462Z,1022.86
2018-09-15T20:12:48.485Z,1022.84
2018-09-15T20:13:48.440Z,1022.85
2018-09-15T20:14:48.452Z,1022.86
2018-09-15T20:15:48.416Z,1022.86
2018-09-15T20:16:48.403Z,1022.88
2018-09-15T20:17:48.414Z,1022.88
2018-09-15T20:18:48.384Z,1022.85
2018-09-15T20:19:48.367Z,1022.84
2018-09-15T20:20:48.524Z,1022.86
2018-09-15T20:21:48.362Z,1022.89
2018-09-15T20:22:48.373Z,1022.90
2018-09-15T20:23:48.317Z,1022.88
2018-09-15T20:24:48.326Z,1022.91
2018-09-15T20:25:48.320Z,1022.94
2018-09-15T20:26:48.296Z,1022.88
2018-09-15T20:27:48.331Z,1022.89
2018-09-15T20:28:48.260Z,1022.92
2018-09-15T20:29:48.247Z,1022.93
2018-09-15T20:30:48.274Z,1022.96
2018-09-15T20:31:48.231Z,1022.91
2018-09-15T20:32:48.293Z,1022.92
2018-09-15T20:33:48.200Z,1022.93
2018-09-15T20:34:48.191Z,1022.93
2018-09-15T20:35:48.189Z,1022.94
2018-09-15T20:36:48.202Z,1022.95
2018-09-15T20:37:48.182Z,1022.92
2018-09-15T20:38:48.184Z,1022.94
2018-09-15T20:39:48.208Z,1022.95
2018-09-15T20:40:48.125Z,1022.89
2018-09-15T20:41:48.144Z,1022.99
2018-09-15T20:42:48.128Z,1022.98
2018-09-15T20:43:48.109Z,1022.92
2018-09-15T20:44:48.101Z,1022.91
2018-09-15T20:45:48.066Z,1022.98
2018-09-15T20:46:48.111Z,1022.97
2018-09-15T20:47:48.063Z,1022.97
2018-09-15T20:48:48.060Z,1022.96
2018-09-15T20:49:48.026Z,1022.97
2018-09-15T20:50:48.030Z,1022.98
2018-09-15T20:51:48.331Z,1022.98
2018-09-15T20:52:48.026Z,1022.98
2018-09-15T20:53:47.990Z,1022.94
2018-09-15T20:54:48.010Z,1022.95
2018-09-15T20:55:47.964Z,1022.98
2018-09-15T20:56:47.972Z,1022.96
2018-09-15T20:57:47.956Z,1022.93
2018-09-15T20:58:47.919Z,1022.97
2018-09-15T20:59:47.922Z,1022.98
2018-09-15T21:00:47.902Z,1022.96
2018-09-15T21:01:47.901Z,1022.94
2018-09-15T21:02:47.947Z,1022.91
2018-09-15T21:03:47.877Z,1022.94
2018-09-15T21:04:47.867Z,1022.89
2018-09-15T21:05:47.858Z,1022.88
2018-09-15T21:06:47.905Z,1022.88
2018-09-15T21:07:47.890Z,1022.92
2018-09-15T21:08:47.808Z,1022.89
2018-09-15T21:09:47.808Z,1022.88
2018-09-15T21:10:47.811Z,1022.85
2018-09-15T21:11:47.798Z,1022.87
2018-09-15T21:12:47.913Z,1022.83
2018-09-15T21:13:47.755Z,1022.82
2018-09-15T21:14:47.752Z,1022.87
2018-09-15T21:15:47.755Z,1022.88
2018-09-15T21:16:47.772Z,1022.86
2018-09-15T21:17:47.769Z,1022.89
2018-09-15T21:18:47.704Z,1022.82
2018-09-15T21:19:47.690Z,1022.85
2018-09-15T21:20:47.711Z,1022.87
2018-09-15T21:21:47.678Z,1022.79
2018-09-15T21:22:47.707Z,1022.86
2018-09-15T21:23:47.663Z,1022.82
2018-09-15T21:24:47.638Z,1022.79
2018-09-15T21:25:47.645Z,1022.80
2018-09-15T21:26:47.616Z,1022.80
2018-09-15T21:27:47.611Z,1022.75
2018-09-15T21:28:47.619Z,1022.78
2018-09-15T21:29:47.585Z,1022.75
2018-09-15T21:30:47.591Z,1022.77
2018-09-15T21:31:47.561Z,1022.74
2018-09-15T21:32:47.562Z,1022.79
2018-09-15T21:33:47.567Z,1022.77
2018-09-15T21:34:47.523Z,1022.83
2018-09-15T21:35:47.521Z,1022.77
2018-09-15T21:36:47.509Z,1022.82
2018-09-15T21:37:47.488Z,1022.83
2018-09-15T21:38:47.592Z,1022.88
2018-09-15T21:39:47.489Z,1022.84
2018-09-15T21:40:47.462Z,1022.91
2018-09-15T21:41:47.457Z,1022.90
2018-09-15T21:42:47.447Z,1022.88
2018-09-15T21:43:47.452Z,1022.93
2018-09-15T21:44:47.429Z,1022.98
2018-09-15T21:45:47.407Z,1022.96
2018-09-15T21:46:47.399Z,1022.98
2018-09-15T21:47:47.386Z,1022.99
2018-09-15T21:48:47.415Z,1022.99
2018-09-15T21:49:47.916Z,1023.01
2018-09-15T21:50:47.361Z,1022.99
2018-09-15T21:51:47.335Z,1023.03
2018-09-15T21:52:47.330Z,1022.98
2018-09-15T21:53:47.334Z,1022.98
2018-09-15T21:54:47.341Z,1023.01
2018-09-15T21:55:47.302Z,1022.97
2018-09-15T21:56:47.289Z,1023.01
2018-09-15T21:57:47.271Z,1023.00
2018-09-15T21:58:47.266Z,1023.03
2018-09-15T21:59:47.273Z,1022.99
2018-09-15T22:01:48.387Z,1023.07
2018-09-15T22:03:48.352Z,1023.03
2018-09-15T22:04:48.911Z,1023.00
2018-09-15T22:05:47.185Z,1023.02
2018-09-15T22:06:47.169Z,1023.02
2018-09-15T22:07:47.168Z,1023.00
2018-09-15T22:08:47.145Z,1023.03
2018-09-15T22:09:47.156Z,1023.00
2018-09-15T22:10:47.125Z,1022.98
2018-09-15T22:11:47.118Z,1022.99
2018-09-15T22:12:47.120Z,1022.98
2018-09-15T22:13:47.095Z,1023.00
2018-09-15T22:14:47.121Z,1022.98
2018-09-15T22:15:47.174Z,1023.05
2018-09-15T22:16:47.084Z,1022.97
2018-09-15T22:20:48.170Z,1022.97
2018-09-15T22:21:47.001Z,1022.91
2018-09-15T22:22:47.024Z,1022.95
2018-09-15T22:23:46.989Z,1022.99
2018-09-15T22:24:46.968Z,1022.96
2018-09-15T22:25:46.981Z,1022.94
2018-09-15T22:26:46.958Z,1022.92
2018-09-15T22:27:46.938Z,1022.94
2018-09-15T22:28:46.933Z,1022.95
2018-09-15T22:29:46.928Z,1022.95
2018-09-15T22:30:46.919Z,1022.94
2018-09-15T22:31:46.947Z,1022.96
2018-09-15T22:32:46.893Z,1022.98
2018-09-15T22:33:46.867Z,1022.96
2018-09-15T22:34:46.861Z,1022.94
2018-09-15T22:35:46.894Z,1022.89
2018-09-15T22:36:46.837Z,1022.90
2018-09-15T22:37:46.830Z,1022.93
2018-09-15T22:38:46.812Z,1022.93